createdAt,value
2019-05-26T00:01:33.761Z,93.70
2019-05-26T00:04:04.399Z,93.60
2019-05-26T00:06:34.102Z,93.70
2019-05-26T00:09:05.045Z,93.80
2019-05-26T00:11:34.799Z,93.70
2019-05-26T00:14:04.583Z,93.60
2019-05-26T00:16:34.061Z,93.70
2019-05-26T00:19:04.634Z,93.60
2019-05-26T00:21:34.622Z,93.80
2019-05-26T00:24:04.154Z,93.80
2019-05-26T00:26:33.913Z,93.90
2019-05-26T00:29:03.526Z,94.00
2019-05-26T00:31:33.305Z,94.00
2019-05-26T00:34:02.993Z,94.00
2019-05-26T00:36:32.819Z,94.00
2019-05-26T00:39:02.610Z,93.80
2019-05-26T00:41:32.342Z,93.90
2019-05-26T00:44:02.137Z,93.90
2019-05-26T00:46:35.020Z,94.30
2019-05-26T00:49:04.749Z,95.30
2019-05-26T00:51:34.319Z,94.80
2019-05-26T00:54:03.930Z,95.00
2019-05-26T00:56:33.409Z,95.40
2019-05-26T00:59:03.158Z,95.80
2019-05-26T01:01:32.840Z,95.60
2019-05-26T01:04:02.484Z,96.00
2019-05-26T01:06:31.949Z,96.00
2019-05-26T01:09:01.433Z,96.10
2019-05-26T01:11:32.347Z,96.10
2019-05-26T01:14:02.020Z,96.10
2019-05-26T01:16:31.773Z,95.90
2019-05-26T01:19:01.486Z,95.60
2019-05-26T01:21:31.061Z,95.80
2019-05-26T01:24:00.551Z,96.00
2019-05-26T01:26:30.413Z,96.20
2019-05-26T01:29:00.099Z,96.20
2019-05-26T01:31:29.808Z,96.20
2019-05-26T01:33:59.357Z,96.20
2019-05-26T01:36:29.094Z,96.20
2019-05-26T01:38:58.503Z,96.30
2019-05-26T01:41:28.111Z,96.40
2019-05-26T01:43:58.234Z,96.40
2019-05-26T01:46:27.741Z,96.60
2019-05-26T01:48:57.546Z,96.60
2019-05-26T01:51:27.306Z,96.60
2019-05-26T01:53:56.928Z,96.50
2019-05-26T01:56:26.595Z,96.50
2019-05-26T01:58:56.630Z,96.60
2019-05-26T02:01:26.348Z,97.00
2019-05-26T02:03:56.072Z,96.60
2019-05-26T02:06:25.763Z,96.80
2019-05-26T02:08:55.414Z,96.90
2019-05-26T02:11:24.984Z,96.80
2019-05-26T02:13:54.633Z,96.50
2019-05-26T02:16:24.095Z,96.60
2019-05-26T02:18:53.910Z,96.70
2019-05-26T02:21:23.516Z,97.00
2019-05-26T02:23:52.953Z,96.90
2019-05-26T02:26:22.806Z,96.80
2019-05-26T02:28:52.354Z,96.70
2019-05-26T02:31:22.003Z,96.30
2019-05-26T02:33:51.768Z,96.80
2019-05-26T02:36:21.348Z,96.80
2019-05-26T02:39:02.247Z,96.90
2019-05-26T02:41:23.220Z,97.00
2019-05-26T02:43:52.796Z,97.20
2019-05-26T02:46:22.525Z,97.30
2019-05-26T02:48:53.205Z,97.40
2019-05-26T02:51:22.990Z,97.40
2019-05-26T02:53:52.705Z,97.40
2019-05-26T02:56:22.224Z,97.30
2019-05-26T02:58:51.864Z,97.00
2019-05-26T03:01:21.422Z,97.40
2019-05-26T03:03:51.773Z,97.70
2019-05-26T03:06:22.454Z,98.00
2019-05-26T03:08:53.239Z,98.00
2019-05-26T03:11:22.923Z,98.00
2019-05-26T03:13:52.583Z,98.10
2019-05-26T03:16:22.502Z,98.30
2019-05-26T03:18:52.899Z,98.30
2019-05-26T03:21:22.397Z,98.40
2019-05-26T03:23:53.452Z,98.40
2019-05-26T03:26:23.231Z,98.40
2019-05-26T03:28:52.808Z,98.30
2019-05-26T03:31:22.747Z,98.20
2019-05-26T03:33:52.314Z,98.20
2019-05-26T03:36:22.158Z,98.20
2019-05-26T03:38:51.765Z,98.20
2019-05-26T03:41:21.595Z,98.20
2019-05-26T03:43:51.234Z,98.20
2019-05-26T03:46:21.061Z,98.30
2019-05-26T03:48:50.872Z,98.40
2019-05-26T03:51:21.854Z,98.40
2019-05-26T03:53:51.516Z,98.40
2019-05-26T03:56:21.203Z,98.40
2019-05-26T03:58:50.850Z,98.70
2019-05-26T04:01:20.941Z,98.30
2019-05-26T04:03:50.749Z,98.30
2019-05-26T04:06:20.778Z,98.30
2019-05-26T04:08:50.914Z,98.30
2019-05-26T04:11:20.416Z,98.40
2019-05-26T04:13:50.313Z,98.30
2019-05-26T04:16:19.950Z,98.20
2019-05-26T04:18:49.792Z,98.20
2019-05-26T04:21:19.379Z,98.20
2019-05-26T04:23:48.923Z,98.10
2019-05-26T04:26:18.567Z,98.20
2019-05-26T04:28:48.156Z,98.20
2019-05-26T04:31:17.962Z,98.20
2019-05-26T04:33:47.768Z,98.30
2019-05-26T04:36:17.591Z,98.50
2019-05-26T04:38:47.329Z,98.40
2019-05-26T04:41:22.875Z,98.50
2019-05-26T04:43:53.540Z,99.00
2019-05-26T04:46:23.119Z,98.00
2019-05-26T04:48:52.895Z,97.90
2019-05-26T04:51:22.603Z,97.80
2019-05-26T04:53:54.734Z,97.60
2019-05-26T04:56:24.379Z,97.40
2019-05-26T04:58:54.018Z,97.30
2019-05-26T05:01:23.882Z,97.00
2019-05-26T05:03:53.439Z,96.80
2019-05-26T05:06:22.931Z,96.60
2019-05-26T05:08:52.528Z,96.60
2019-05-26T05:11:22.089Z,96.50
2019-05-26T05:13:52.145Z,96.60
2019-05-26T05:16:21.593Z,96.70
2019-05-26T05:18:51.264Z,96.20
2019-05-26T05:21:20.741Z,96.60
2019-05-26T05:23:50.278Z,96.50
2019-05-26T05:26:20.125Z,96.60
2019-05-26T05:28:49.817Z,96.40
2019-05-26T05:31:19.409Z,96.10
2019-05-26T05:33:48.814Z,96.00
2019-05-26T05:36:18.755Z,96.30
2019-05-26T05:38:48.433Z,96.00
2019-05-26T05:41:17.987Z,95.50
2019-05-26T05:43:47.641Z,94.50
2019-05-26T05:46:17.150Z,93.80
2019-05-26T05:48:46.747Z,93.40
2019-05-26T05:51:16.370Z,93.20
2019-05-26T05:53:46.055Z,93.00
2019-05-26T05:56:15.700Z,92.70
2019-05-26T05:58:45.372Z,91.90
2019-05-26T06:01:15.111Z,92.10
2019-05-26T06:03:44.990Z,92.40
2019-05-26T06:06:14.708Z,92.90
2019-05-26T06:08:44.444Z,90.60
2019-05-26T06:11:16.910Z,90.80
2019-05-26T06:13:49.848Z,90.60
2019-05-26T06:16:19.716Z,90.80
2019-05-26T06:18:49.540Z,88.30
2019-05-26T06:21:19.132Z,89.40
2019-05-26T06:23:49.742Z,88.90
2019-05-26T06:26:19.174Z,88.80
2019-05-26T06:28:52.144Z,88.40
2019-05-26T06:31:20.011Z,87.60
2019-05-26T06:33:49.734Z,87.20
2019-05-26T06:36:19.456Z,88.00
2019-05-26T06:38:48.940Z,88.80
2019-05-26T06:41:32.253Z,87.50
2019-05-26T06:43:50.495Z,86.80
2019-05-26T06:46:19.967Z,85.70
2019-05-26T06:48:49.374Z,85.40
2019-05-26T06:51:18.983Z,88.20
2019-05-26T06:53:48.638Z,85.60
2019-05-26T06:56:18.228Z,87.00
2019-05-26T06:58:48.119Z,87.90
2019-05-26T07:01:17.388Z,91.00
2019-05-26T07:03:47.162Z,86.90
2019-05-26T07:06:17.805Z,85.70
2019-05-26T07:08:47.357Z,87.20
2019-05-26T07:11:16.964Z,86.30
2019-05-26T07:13:46.666Z,86.20
2019-05-26T07:16:16.084Z,85.60
2019-05-26T07:18:45.802Z,86.50
2019-05-26T07:21:15.514Z,84.10
2019-05-26T07:23:45.274Z,83.10
2019-05-26T07:26:14.888Z,84.00
2019-05-26T07:28:44.541Z,84.50
2019-05-26T07:31:14.511Z,82.10
2019-05-26T07:33:45.706Z,82.40
2019-05-26T07:36:15.411Z,81.00
2019-05-26T07:38:45.042Z,79.00
2019-05-26T07:41:14.829Z,79.00
2019-05-26T07:43:44.436Z,78.70
2019-05-26T07:46:14.070Z,79.40
2019-05-26T07:48:44.221Z,76.10
2019-05-26T07:51:14.225Z,76.80
2019-05-26T07:53:43.991Z,76.80
2019-05-26T07:56:13.688Z,77.10
2019-05-26T07:58:43.301Z,76.20
2019-05-26T08:01:13.135Z,73.80
2019-05-26T08:03:42.789Z,73.80
2019-05-26T08:06:12.757Z,73.80
2019-05-26T08:08:42.473Z,75.40
2019-05-26T08:11:12.089Z,74.20
2019-05-26T08:13:41.993Z,72.40
2019-05-26T08:16:11.957Z,68.80
2019-05-26T08:18:41.930Z,70.90
2019-05-26T08:21:11.580Z,72.30
2019-05-26T08:23:41.487Z,73.30
2019-05-26T08:26:11.173Z,72.80
2019-05-26T08:28:41.011Z,70.90
2019-05-26T08:31:13.382Z,70.20
2019-05-26T08:33:42.190Z,67.80
2019-05-26T08:36:12.305Z,68.60
2019-05-26T08:38:42.100Z,68.80
2019-05-26T08:41:12.191Z,67.20
2019-05-26T08:43:41.902Z,67.60
2019-05-26T08:46:15.289Z,66.60
2019-05-26T08:48:48.191Z,65.20
2019-05-26T08:51:17.921Z,63.90
2019-05-26T08:53:48.160Z,59.90
2019-05-26T08:56:17.754Z,59.20
2019-05-26T08:58:47.628Z,57.70
2019-05-26T09:01:19.770Z,59.90
2019-05-26T09:03:49.459Z,59.70
2019-05-26T09:06:19.440Z,60.50
2019-05-26T09:08:49.242Z,61.50
2019-05-26T09:11:19.058Z,62.40
2019-05-26T09:13:48.673Z,64.30
2019-05-26T09:16:18.348Z,61.70
2019-05-26T09:18:48.023Z,64.40
2019-05-26T09:21:17.768Z,62.00
2019-05-26T09:23:47.597Z,64.50
2019-05-26T09:26:17.216Z,66.20
2019-05-26T09:28:48.108Z,64.80
2019-05-26T09:31:18.468Z,64.60
2019-05-26T09:33:48.188Z,61.50
2019-05-26T09:36:17.926Z,60.70
2019-05-26T09:38:47.532Z,59.70
2019-05-26T09:41:17.056Z,61.90
2019-05-26T09:43:46.957Z,59.70
2019-05-26T09:46:16.601Z,60.00
2019-05-26T09:48:46.387Z,60.80
2019-05-26T09:51:16.295Z,61.40
2019-05-26T09:53:59.072Z,59.50
2019-05-26T09:56:18.128Z,60.20
2019-05-26T09:58:47.915Z,61.30
2019-05-26T10:01:18.151Z,58.20
2019-05-26T10:03:47.641Z,57.00
2019-05-26T10:06:17.725Z,55.60
2019-05-26T10:08:47.130Z,54.60
2019-05-26T10:11:17.987Z,54.00
2019-05-26T10:13:48.024Z,53.90
2019-05-26T10:16:17.666Z,53.10
2019-05-26T10:18:47.315Z,54.50
2019-05-26T10:21:18.438Z,56.90
2019-05-26T10:23:48.013Z,55.30
2019-05-26T10:26:21.634Z,54.80
2019-05-26T10:28:53.607Z,56.50
2019-05-26T10:31:23.263Z,54.50
2019-05-26T10:33:52.797Z,56.50
2019-05-26T10:36:22.447Z,55.10
2019-05-26T10:38:52.706Z,54.60
2019-05-26T10:41:23.291Z,55.30
2019-05-26T10:43:52.866Z,52.90
2019-05-26T10:46:22.228Z,52.00
2019-05-26T10:48:52.629Z,52.60
2019-05-26T10:51:22.118Z,52.40
2019-05-26T10:53:51.563Z,53.30
2019-05-26T10:56:21.139Z,53.90
2019-05-26T10:58:52.369Z,54.50
2019-05-26T11:01:21.746Z,54.20
2019-05-26T11:03:51.183Z,54.00
2019-05-26T11:06:20.655Z,53.00
2019-05-26T11:08:50.207Z,50.10
2019-05-26T11:11:19.689Z,50.00
2019-05-26T11:14:01.861Z,47.50
2019-05-26T11:16:20.190Z,48.50
2019-05-26T11:18:49.924Z,46.20
2019-05-26T11:21:19.316Z,48.70
2019-05-26T11:23:48.698Z,50.00
2019-05-26T11:26:18.319Z,48.70
2019-05-26T11:28:47.989Z,48.20
2019-05-26T11:31:17.475Z,49.40
2019-05-26T11:33:47.057Z,50.70
2019-05-26T11:36:16.564Z,49.00
2019-05-26T11:38:46.107Z,49.80
2019-05-26T11:41:15.923Z,50.00
2019-05-26T11:43:45.456Z,50.90
2019-05-26T11:46:16.773Z,52.30
2019-05-26T11:48:46.405Z,52.80
2019-05-26T11:51:15.968Z,53.40
2019-05-26T11:53:45.819Z,54.40
2019-05-26T11:56:15.695Z,55.40
2019-05-26T11:58:46.059Z,55.50
2019-05-26T12:01:15.774Z,54.20
2019-05-26T12:03:45.462Z,55.20
2019-05-26T12:06:15.105Z,52.80
2019-05-26T12:08:44.862Z,53.00
2019-05-26T12:11:14.472Z,52.00
2019-05-26T12:13:44.042Z,51.70
2019-05-26T12:16:13.747Z,53.20
2019-05-26T12:18:44.926Z,54.20
2019-05-26T12:21:14.804Z,54.80
2019-05-26T12:23:44.887Z,55.00
2019-05-26T12:26:15.305Z,55.60
2019-05-26T12:28:45.726Z,56.10
2019-05-26T12:31:15.214Z,54.30
2019-05-26T12:33:45.067Z,53.00
2019-05-26T12:38:53.022Z,50.50
2019-05-26T12:48:51.798Z,54.70
2019-05-26T12:51:21.325Z,56.00
2019-05-26T12:53:50.986Z,55.80
2019-05-26T12:56:20.558Z,55.60
2019-05-26T12:58:50.079Z,55.00
2019-05-26T13:01:19.737Z,54.10
2019-05-26T13:03:49.404Z,53.80
2019-05-26T13:06:20.110Z,52.20
2019-05-26T13:08:49.917Z,52.40
2019-05-26T13:11:22.683Z,52.60
2019-05-26T13:13:52.925Z,51.40
2019-05-26T13:16:22.660Z,49.70
2019-05-26T13:18:52.409Z,50.50
2019-05-26T13:21:23.922Z,53.70
2019-05-26T13:23:53.135Z,54.30
2019-05-26T13:26:22.782Z,53.50
2019-05-26T13:28:52.386Z,51.20
2019-05-26T13:31:21.910Z,52.70
2019-05-26T13:33:52.527Z,53.30
2019-05-26T13:36:22.121Z,53.00
2019-05-26T13:38:51.770Z,54.20
2019-05-26T13:41:21.405Z,53.10
2019-05-26T13:43:52.175Z,50.20
2019-05-26T13:46:21.721Z,49.40
2019-05-26T13:48:51.213Z,47.50
2019-05-26T13:51:22.122Z,47.70
2019-05-26T13:53:51.594Z,50.20
2019-05-26T13:56:21.107Z,48.10
2019-05-26T13:58:50.621Z,48.50
2019-05-26T14:01:20.542Z,48.10
2019-05-26T14:03:50.135Z,50.20
2019-05-26T14:06:19.592Z,50.60
2019-05-26T14:08:50.106Z,51.30
2019-05-26T14:11:19.667Z,51.10
2019-05-26T14:13:49.310Z,49.50
2019-05-26T14:16:19.533Z,49.30
2019-05-26T14:18:49.024Z,51.20
2019-05-26T14:21:18.652Z,49.70
2019-05-26T14:23:48.216Z,48.20
2019-05-26T14:26:17.747Z,47.10
2019-05-26T14:28:47.504Z,48.50
2019-05-26T14:31:17.108Z,48.30
2019-05-26T14:33:57.041Z,48.60
2019-05-26T14:36:26.734Z,48.70
2019-05-26T14:38:56.859Z,46.70
2019-05-26T14:41:26.915Z,46.90
2019-05-26T14:43:56.442Z,47.10
2019-05-26T14:46:26.346Z,48.00
2019-05-26T14:48:56.059Z,49.70
2019-05-26T14:51:25.845Z,50.00
2019-05-26T14:53:55.800Z,50.40
2019-05-26T14:56:25.430Z,50.10
2019-05-26T14:58:55.114Z,50.10
2019-05-26T15:01:24.780Z,49.50
2019-05-26T15:03:54.701Z,49.00
2019-05-26T15:06:24.351Z,48.30
2019-05-26T15:08:53.958Z,46.80
2019-05-26T15:11:23.688Z,46.30
2019-05-26T15:13:53.514Z,46.70
2019-05-26T15:16:23.554Z,46.80
2019-05-26T15:18:53.691Z,49.30
2019-05-26T15:21:23.351Z,48.90
2019-05-26T15:23:53.075Z,47.40
2019-05-26T15:26:24.105Z,47.00
2019-05-26T15:28:53.917Z,48.10
2019-05-26T15:31:23.863Z,48.70
2019-05-26T15:33:53.577Z,48.90
2019-05-26T15:36:23.361Z,48.50
2019-05-26T15:38:53.238Z,48.00
2019-05-26T15:41:24.374Z,47.30
2019-05-26T15:43:54.513Z,46.90
2019-05-26T15:46:25.713Z,47.00
2019-05-26T15:48:57.163Z,47.00
2019-05-26T15:51:27.085Z,48.10
2019-05-26T15:53:56.730Z,47.70
2019-05-26T15:56:26.781Z,49.70
2019-05-26T15:58:58.117Z,50.30
2019-05-26T16:01:29.366Z,50.60
2019-05-26T16:03:59.293Z,51.20
2019-05-26T16:06:28.992Z,51.80
2019-05-26T16:08:58.692Z,52.70
2019-05-26T16:11:28.639Z,52.10
2019-05-26T16:13:58.634Z,51.50
2019-05-26T16:16:40.689Z,51.10
2019-05-26T16:19:00.453Z,50.60
2019-05-26T16:21:29.902Z,51.10
2019-05-26T16:23:59.631Z,51.70
2019-05-26T16:26:29.362Z,52.80
2019-05-26T16:28:59.249Z,53.30
2019-05-26T16:31:28.970Z,53.00
2019-05-26T16:33:59.829Z,53.70
2019-05-26T16:36:29.378Z,54.90
2019-05-26T16:38:59.063Z,54.90
2019-05-26T16:41:28.666Z,54.80
2019-05-26T16:43:58.270Z,55.10
2019-05-26T16:46:27.704Z,54.40
2019-05-26T16:48:57.508Z,54.60
2019-05-26T16:51:27.390Z,55.00
2019-05-26T16:53:56.880Z,55.80
2019-05-26T16:56:26.818Z,55.90
2019-05-26T16:58:56.731Z,55.40
2019-05-26T17:01:26.341Z,55.30
2019-05-26T17:03:55.898Z,55.60
2019-05-26T17:06:25.415Z,55.60
2019-05-26T17:08:55.017Z,55.70
2019-05-26T17:11:24.857Z,56.40
2019-05-26T17:13:54.430Z,56.20
2019-05-26T17:16:24.489Z,56.20
2019-05-26T17:18:54.469Z,56.80
2019-05-26T17:21:25.272Z,57.50
2019-05-26T17:23:55.825Z,56.90
2019-05-26T17:26:25.491Z,56.40
2019-05-26T17:28:55.666Z,56.50
2019-05-26T17:31:25.386Z,56.60
2019-05-26T17:33:55.231Z,56.80
2019-05-26T17:36:25.138Z,56.60
2019-05-26T17:38:55.050Z,56.60
2019-05-26T17:41:24.840Z,56.40
2019-05-26T17:43:54.468Z,56.90
2019-05-26T17:46:24.104Z,57.70
2019-05-26T17:48:53.708Z,57.40
2019-05-26T17:51:23.378Z,57.70
2019-05-26T17:53:53.537Z,57.60
2019-05-26T17:56:23.560Z,57.70
2019-05-26T17:58:53.467Z,58.80
2019-05-26T18:01:23.079Z,59.00
2019-05-26T18:03:52.983Z,58.60
2019-05-26T18:06:22.654Z,59.00
2019-05-26T18:08:52.609Z,59.30
2019-05-26T18:11:23.348Z,59.60
2019-05-26T18:13:53.539Z,59.50
2019-05-26T18:16:23.077Z,59.70
2019-05-26T18:18:52.808Z,59.10
2019-05-26T18:21:22.363Z,59.20
2019-05-26T18:23:51.896Z,59.40
2019-05-26T18:26:21.411Z,59.60
2019-05-26T18:28:51.109Z,59.50
2019-05-26T18:31:20.789Z,59.70
2019-05-26T18:33:50.327Z,60.00
2019-05-26T18:36:19.987Z,59.80
2019-05-26T18:38:49.819Z,60.60
2019-05-26T18:41:19.660Z,60.20
2019-05-26T18:43:49.483Z,60.90
2019-05-26T18:46:20.306Z,62.10
2019-05-26T18:48:50.031Z,63.90
2019-05-26T18:51:19.667Z,63.70
2019-05-26T18:53:49.816Z,66.00
2019-05-26T18:56:20.581Z,66.80
2019-05-26T18:58:50.255Z,68.80
2019-05-26T19:01:19.737Z,66.10
2019-05-26T19:03:49.705Z,64.80
2019-05-26T19:06:19.619Z,64.00
2019-05-26T19:08:49.435Z,63.50
2019-05-26T19:11:19.083Z,63.70
2019-05-26T19:13:48.625Z,64.70
2019-05-26T19:16:18.283Z,65.70
2019-05-26T19:18:49.221Z,66.50
2019-05-26T19:21:18.980Z,65.70
2019-05-26T19:23:48.489Z,65.50
2019-05-26T19:26:18.227Z,65.70
2019-05-26T19:28:47.904Z,65.90
2019-05-26T19:31:18.771Z,66.20
2019-05-26T19:33:48.395Z,66.40
2019-05-26T19:36:18.131Z,66.90
2019-05-26T19:38:47.691Z,66.90
2019-05-26T19:41:17.379Z,69.60
2019-05-26T19:43:47.087Z,69.00
2019-05-26T19:46:16.735Z,69.90
2019-05-26T19:48:46.428Z,71.40
2019-05-26T19:51:16.153Z,71.50
2019-05-26T19:53:46.019Z,70.30
2019-05-26T19:56:15.661Z,69.40
2019-05-26T19:58:45.366Z,71.70
2019-05-26T20:01:15.050Z,71.80
2019-05-26T20:03:44.609Z,72.20
2019-05-26T20:06:14.046Z,72.20
2019-05-26T20:08:43.696Z,72.70
2019-05-26T20:11:14.438Z,74.10
2019-05-26T20:13:44.255Z,73.50
2019-05-26T20:16:13.886Z,73.80
2019-05-26T20:18:43.671Z,74.40
2019-05-26T20:21:13.292Z,75.30
2019-05-26T20:23:42.845Z,76.80
2019-05-26T20:26:15.988Z,78.00
2019-05-26T20:28:47.100Z,79.20
2019-05-26T20:31:16.946Z,78.40
2019-05-26T20:33:46.538Z,78.80
2019-05-26T20:36:16.398Z,79.10
2019-05-26T20:38:46.197Z,79.70
2019-05-26T20:41:17.332Z,80.40
2019-05-26T20:43:47.008Z,80.80
2019-05-26T20:46:16.739Z,81.20
2019-05-26T20:48:46.469Z,80.90
2019-05-26T20:51:16.313Z,81.50
2019-05-26T20:53:45.985Z,81.80
2019-05-26T20:56:15.640Z,82.20
2019-05-26T20:58:45.668Z,82.80
2019-05-26T21:01:15.341Z,83.00
2019-05-26T21:03:44.924Z,83.40
2019-05-26T21:06:14.715Z,83.70
2019-05-26T21:08:44.262Z,84.00
2019-05-26T21:11:14.243Z,84.00
2019-05-26T21:13:43.926Z,84.40
2019-05-26T21:16:13.473Z,84.60
2019-05-26T21:18:43.148Z,84.90
2019-05-26T21:21:13.206Z,85.40
2019-05-26T21:23:42.845Z,85.60
2019-05-26T21:26:12.537Z,85.60
2019-05-26T21:28:42.504Z,85.90
2019-05-26T21:31:12.415Z,86.20
2019-05-26T21:33:42.327Z,86.50
2019-05-26T21:36:12.154Z,86.50
2019-05-26T21:38:41.786Z,86.80
2019-05-26T21:41:11.782Z,87.10
2019-05-26T21:43:41.371Z,86.20
2019-05-26T21:46:11.093Z,85.90
2019-05-26T21:48:41.149Z,85.60
2019-05-26T21:51:11.040Z,85.60
2019-05-26T21:53:40.683Z,85.90
2019-05-26T21:56:10.331Z,86.00
2019-05-26T21:58:40.034Z,86.50
2019-05-26T22:01:09.723Z,87.00
2019-05-26T22:03:39.451Z,88.10
2019-05-26T22:06:09.207Z,88.10
2019-05-26T22:08:39.142Z,88.10
2019-05-26T22:11:10.018Z,88.00
2019-05-26T22:13:39.737Z,90.00
2019-05-26T22:16:09.391Z,88.80
2019-05-26T22:18:39.185Z,88.70
2019-05-26T22:21:08.891Z,88.80
2019-05-26T22:23:38.937Z,89.50
2019-05-26T22:26:08.616Z,90.10
2019-05-26T22:28:38.941Z,90.60
2019-05-26T22:31:08.741Z,91.10
2019-05-26T22:33:38.781Z,91.60
2019-05-26T22:36:08.361Z,91.80
2019-05-26T22:38:38.392Z,91.90
2019-05-26T22:41:08.075Z,92.00
2019-05-26T22:43:37.947Z,92.40
2019-05-26T22:46:07.471Z,92.10
2019-05-26T22:48:37.203Z,92.80
2019-05-26T22:51:07.091Z,93.40
2019-05-26T22:53:36.975Z,94.00
2019-05-26T22:56:06.650Z,94.40
2019-05-26T22:58:36.294Z,94.90
2019-05-26T23:01:06.003Z,95.00
2019-05-26T23:03:36.126Z,95.20
2019-05-26T23:06:06.928Z,95.60
2019-05-26T23:08:36.529Z,95.20
2019-05-26T23:11:06.497Z,95.50
2019-05-26T23:13:36.049Z,95.70
2019-05-26T23:16:06.109Z,96.10
2019-05-26T23:18:35.777Z,96.40
2019-05-26T23:21:05.767Z,96.70
2019-05-26T23:23:35.402Z,96.70
2019-05-26T23:26:05.154Z,96.80
2019-05-26T23:28:35.284Z,96.80
2019-05-26T23:31:04.981Z,99.90
2019-05-26T23:33:34.689Z,99.90
2019-05-26T23:36:04.252Z,99.90
2019-05-26T23:38:33.858Z,98.30
2019-05-26T23:43:32.634Z,95.90
2019-05-26T23:46:02.496Z,99.90
2019-05-26T23:48:32.020Z,99.90
2019-05-26T23:51:01.469Z,97.30
2019-05-26T23:56:01.326Z,99.90
2019-05-26T23:58:30.973Z,99.80
